sensor_id;sensor_type;location;lat;lon;timestamp;P1;durP1;ratioP1;P2;durP2;ratioP2
25936;SDS011;13733;51.178;4.450;2023-05-13T00:00:36;13.45;;;10.15;;
25936;SDS011;13733;51.178;4.450;2023-05-13T00:03:02;18.42;;;10.95;;
25936;SDS011;13733;51.178;4.450;2023-05-13T00:05:28;11.68;;;10.40;;
25936;SDS011;13733;51.178;4.450;2023-05-13T00:07:54;13.18;;;10.60;;
25936;SDS011;13733;51.178;4.450;2023-05-13T00:10:20;12.15;;;10.55;;
25936;SDS011;13733;51.178;4.450;2023-05-13T00:12:46;12.55;;;11.10;;
25936;SDS011;13733;51.178;4.450;2023-05-13T00:15:12;13.93;;;10.68;;
25936;SDS011;13733;51.178;4.450;2023-05-13T00:17:39;12.27;;;10.95;;
25936;SDS011;13733;51.178;4.450;2023-05-13T00:20:05;12.00;;;10.80;;
25936;SDS011;13733;51.178;4.450;2023-05-13T00:22:32;15.95;;;11.65;;
25936;SDS011;13733;51.178;4.450;2023-05-13T00:24:57;13.30;;;11.60;;
25936;SDS011;13733;51.178;4.450;2023-05-13T00:27:23;13.45;;;10.60;;
25936;SDS011;13733;51.178;4.450;2023-05-13T00:29:49;11.98;;;10.77;;
25936;SDS011;13733;51.178;4.450;2023-05-13T00:32:16;16.45;;;11.70;;
25936;SDS011;13733;51.178;4.450;2023-05-13T00:34:42;13.82;;;11.82;;
25936;SDS011;13733;51.178;4.450;2023-05-13T00:37:08;16.63;;;10.57;;
25936;SDS011;13733;51.178;4.450;2023-05-13T00:39:35;16.90;;;11.05;;
25936;SDS011;13733;51.178;4.450;2023-05-13T00:42:01;15.20;;;11.27;;
25936;SDS011;13733;51.178;4.450;2023-05-13T00:44:29;14.55;;;11.38;;
25936;SDS011;13733;51.178;4.450;2023-05-13T00:46:55;13.35;;;11.05;;
25936;SDS011;13733;51.178;4.450;2023-05-13T00:49:21;13.18;;;11.02;;
25936;SDS011;13733;51.178;4.450;2023-05-13T00:51:47;14.13;;;11.20;;
25936;SDS011;13733;51.178;4.450;2023-05-13T00:54:14;14.82;;;11.23;;
25936;SDS011;13733;51.178;4.450;2023-05-13T00:56:40;13.93;;;10.57;;
25936;SDS011;13733;51.178;4.450;2023-05-13T00:59:06;14.73;;;10.63;;
25936;SDS011;13733;51.178;4.450;2023-05-13T01:12:34;14.43;;;10.85;;
25936;SDS011;13733;51.178;4.450;2023-05-13T01:15:05;12.35;;;10.55;;
25936;SDS011;13733;51.178;4.450;2023-05-13T01:17:34;11.82;;;10.60;;
25936;SDS011;13733;51.178;4.450;2023-05-13T01:20:26;14.82;;;10.82;;
25936;SDS011;13733;51.178;4.450;2023-05-13T01:22:54;11.57;;;10.38;;
25936;SDS011;13733;51.178;4.450;2023-05-13T01:25:22;13.82;;;10.75;;
25936;SDS011;13733;51.178;4.450;2023-05-13T01:27:50;14.32;;;10.82;;
25936;SDS011;13733;51.178;4.450;2023-05-13T01:30:18;16.92;;;10.43;;
25936;SDS011;13733;51.178;4.450;2023-05-13T01:32:46;15.27;;;10.48;;
25936;SDS011;13733;51.178;4.450;2023-05-13T01:35:14;13.77;;;10.10;;
25936;SDS011;13733;51.178;4.450;2023-05-13T01:37:43;13.73;;;11.10;;
25936;SDS011;13733;51.178;4.450;2023-05-13T01:40:10;13.00;;;10.25;;
25936;SDS011;13733;51.178;4.450;2023-05-13T01:42:37;12.35;;;9.55;;
25936;SDS011;13733;51.178;4.450;2023-05-13T01:45:03;14.20;;;10.40;;
25936;SDS011;13733;51.178;4.450;2023-05-13T01:47:30;13.25;;;10.48;;
25936;SDS011;13733;51.178;4.450;2023-05-13T01:49:57;14.60;;;10.10;;
25936;SDS011;13733;51.178;4.450;2023-05-13T01:52:23;12.60;;;11.00;;
25936;SDS011;13733;51.178;4.450;2023-05-13T01:54:49;11.32;;;10.13;;
25936;SDS011;13733;51.178;4.450;2023-05-13T01:57:16;12.30;;;10.00;;
25936;SDS011;13733;51.178;4.450;2023-05-13T01:59:41;13.90;;;10.50;;
25936;SDS011;13733;51.178;4.450;2023-05-13T02:02:09;10.93;;;9.80;;
25936;SDS011;13733;51.178;4.450;2023-05-13T02:04:35;14.57;;;10.80;;
25936;SDS011;13733;51.178;4.450;2023-05-13T02:07:01;12.55;;;9.88;;
25936;SDS011;13733;51.178;4.450;2023-05-13T02:09:29;15.57;;;10.32;;
25936;SDS011;13733;51.178;4.450;2023-05-13T02:11:56;12.18;;;9.80;;
25936;SDS011;13733;51.178;4.450;2023-05-13T02:14:22;11.63;;;9.90;;
25936;SDS011;13733;51.178;4.450;2023-05-13T02:16:48;12.65;;;9.43;;
25936;SDS011;13733;51.178;4.450;2023-05-13T02:19:14;14.68;;;9.32;;
25936;SDS011;13733;51.178;4.450;2023-05-13T02:21:40;13.25;;;9.32;;
25936;SDS011;13733;51.178;4.450;2023-05-13T02:24:07;10.55;;;9.40;;
25936;SDS011;13733;51.178;4.450;2023-05-13T02:26:34;14.02;;;9.05;;
25936;SDS011;13733;51.178;4.450;2023-05-13T02:29:00;12.52;;;8.75;;
25936;SDS011;13733;51.178;4.450;2023-05-13T02:31:26;11.77;;;8.85;;
25936;SDS011;13733;51.178;4.450;2023-05-13T02:33:52;10.05;;;8.75;;
25936;SDS011;13733;51.178;4.450;2023-05-13T02:36:18;12.85;;;8.40;;
25936;SDS011;13733;51.178;4.450;2023-05-13T02:38:45;9.00;;;7.95;;
25936;SDS011;13733;51.178;4.450;2023-05-13T02:41:13;11.30;;;8.07;;
25936;SDS011;13733;51.178;4.450;2023-05-13T02:43:40;10.32;;;8.05;;
25936;SDS011;13733;51.178;4.450;2023-05-13T02:46:07;12.93;;;7.47;;
25936;SDS011;13733;51.178;4.450;2023-05-13T02:48:32;11.05;;;7.90;;
25936;SDS011;13733;51.178;4.450;2023-05-13T02:50:59;8.27;;;7.45;;
25936;SDS011;13733;51.178;4.450;2023-05-13T02:53:25;10.63;;;7.38;;
25936;SDS011;13733;51.178;4.450;2023-05-13T02:55:56;8.35;;;7.25;;
25936;SDS011;13733;51.178;4.450;2023-05-13T02:58:24;8.45;;;7.10;;
25936;SDS011;13733;51.178;4.450;2023-05-13T03:00:51;9.18;;;7.43;;
25936;SDS011;13733;51.178;4.450;2023-05-13T03:03:17;8.77;;;7.32;;
25936;SDS011;13733;51.178;4.450;2023-05-13T03:05:43;13.00;;;7.45;;
25936;SDS011;13733;51.178;4.450;2023-05-13T03:08:08;13.15;;;7.20;;
25936;SDS011;13733;51.178;4.450;2023-05-13T03:10:34;11.40;;;6.68;;
25936;SDS011;13733;51.178;4.450;2023-05-13T03:13:00;11.18;;;6.82;;
25936;SDS011;13733;51.178;4.450;2023-05-13T03:15:26;8.68;;;6.55;;
25936;SDS011;13733;51.178;4.450;2023-05-13T03:17:52;11.77;;;7.38;;
25936;SDS011;13733;51.178;4.450;2023-05-13T03:20:19;7.68;;;6.93;;
25936;SDS011;13733;51.178;4.450;2023-05-13T03:22:45;9.05;;;7.03;;
25936;SDS011;13733;51.178;4.450;2023-05-13T03:25:11;8.05;;;6.72;;
25936;SDS011;13733;51.178;4.450;2023-05-13T03:27:48;8.65;;;7.20;;
25936;SDS011;13733;51.178;4.450;2023-05-13T03:30:17;11.00;;;6.60;;
25936;SDS011;13733;51.178;4.450;2023-05-13T03:32:50;9.05;;;7.25;;
25936;SDS011;13733;51.178;4.450;2023-05-13T03:35:16;11.15;;;6.95;;
25936;SDS011;13733;51.178;4.450;2023-05-13T03:37:42;8.10;;;7.22;;
25936;SDS011;13733;51.178;4.450;2023-05-13T03:40:09;9.75;;;7.10;;
25936;SDS011;13733;51.178;4.450;2023-05-13T03:42:36;10.68;;;7.35;;
25936;SDS011;13733;51.178;4.450;2023-05-13T03:45:03;11.85;;;7.68;;
25936;SDS011;13733;51.178;4.450;2023-05-13T03:47:32;13.00;;;7.60;;
25936;SDS011;13733;51.178;4.450;2023-05-13T03:50:03;12.15;;;7.10;;
25936;SDS011;13733;51.178;4.450;2023-05-13T03:52:36;8.13;;;7.15;;
25936;SDS011;13733;51.178;4.450;2023-05-13T03:55:02;10.43;;;7.65;;
25936;SDS011;13733;51.178;4.450;2023-05-13T03:57:27;9.23;;;7.43;;
25936;SDS011;13733;51.178;4.450;2023-05-13T03:59:53;12.10;;;7.15;;
25936;SDS011;13733;51.178;4.450;2023-05-13T04:02:19;8.63;;;6.60;;
25936;SDS011;13733;51.178;4.450;2023-05-13T04:04:45;7.80;;;6.90;;
25936;SDS011;13733;51.178;4.450;2023-05-13T04:07:11;7.38;;;6.30;;
25936;SDS011;13733;51.178;4.450;2023-05-13T04:09:37;12.60;;;6.90;;
25936;SDS011;13733;51.178;4.450;2023-05-13T04:12:03;9.45;;;6.43;;
25936;SDS011;13733;51.178;4.450;2023-05-13T04:14:29;9.43;;;6.65;;
25936;SDS011;13733;51.178;4.450;2023-05-13T04:16:55;11.10;;;6.72;;
25936;SDS011;13733;51.178;4.450;2023-05-13T04:19:23;10.20;;;6.82;;
25936;SDS011;13733;51.178;4.450;2023-05-13T04:21:51;15.88;;;7.68;;
25936;SDS011;13733;51.178;4.450;2023-05-13T04:24:17;11.70;;;7.10;;
25936;SDS011;13733;51.178;4.450;2023-05-13T04:26:43;9.27;;;6.93;;
25936;SDS011;13733;51.178;4.450;2023-05-13T04:29:09;10.23;;;6.10;;
25936;SDS011;13733;51.178;4.450;2023-05-13T04:31:34;9.38;;;6.88;;
25936;SDS011;13733;51.178;4.450;2023-05-13T04:34:00;10.18;;;5.93;;
25936;SDS011;13733;51.178;4.450;2023-05-13T04:36:26;8.98;;;6.00;;
25936;SDS011;13733;51.178;4.450;2023-05-13T04:38:53;11.15;;;6.65;;
25936;SDS011;13733;51.178;4.450;2023-05-13T04:41:21;13.68;;;6.53;;
25936;SDS011;13733;51.178;4.450;2023-05-13T04:43:47;9.13;;;5.50;;
25936;SDS011;13733;51.178;4.450;2023-05-13T04:46:13;7.32;;;5.50;;
25936;SDS011;13733;51.178;4.450;2023-05-13T04:48:39;8.93;;;5.97;;
25936;SDS011;13733;51.178;4.450;2023-05-13T04:51:07;10.10;;;5.95;;
25936;SDS011;13733;51.178;4.450;2023-05-13T04:53:33;9.63;;;5.70;;
25936;SDS011;13733;51.178;4.450;2023-05-13T04:56:01;8.63;;;6.32;;
25936;SDS011;13733;51.178;4.450;2023-05-13T04:58:28;9.77;;;6.32;;
25936;SDS011;13733;51.178;4.450;2023-05-13T05:00:55;7.82;;;6.20;;
25936;SDS011;13733;51.178;4.450;2023-05-13T05:03:22;11.00;;;6.22;;
25936;SDS011;13733;51.178;4.450;2023-05-13T05:05:49;11.07;;;6.60;;
25936;SDS011;13733;51.178;4.450;2023-05-13T05:08:15;8.38;;;6.00;;
25936;SDS011;13733;51.178;4.450;2023-05-13T05:10:42;9.30;;;6.18;;
25936;SDS011;13733;51.178;4.450;2023-05-13T05:13:09;7.78;;;6.53;;
25936;SDS011;13733;51.178;4.450;2023-05-13T05:15:36;15.20;;;6.72;;
25936;SDS011;13733;51.178;4.450;2023-05-13T05:18:04;7.68;;;6.75;;
25936;SDS011;13733;51.178;4.450;2023-05-13T05:20:32;8.77;;;6.45;;
25936;SDS011;13733;51.178;4.450;2023-05-13T05:23:00;9.43;;;7.05;;
25936;SDS011;13733;51.178;4.450;2023-05-13T05:25:29;12.40;;;6.72;;
25936;SDS011;13733;51.178;4.450;2023-05-13T05:27:55;12.68;;;7.10;;
25936;SDS011;13733;51.178;4.450;2023-05-13T05:30:22;10.35;;;6.63;;
25936;SDS011;13733;51.178;4.450;2023-05-13T05:32:56;10.98;;;6.65;;
25936;SDS011;13733;51.178;4.450;2023-05-13T05:35:23;12.38;;;6.72;;
25936;SDS011;13733;51.178;4.450;2023-05-13T05:37:49;9.88;;;6.65;;
25936;SDS011;13733;51.178;4.450;2023-05-13T05:40:17;13.15;;;7.32;;
25936;SDS011;13733;51.178;4.450;2023-05-13T05:42:45;13.60;;;7.35;;
25936;SDS011;13733;51.178;4.450;2023-05-13T05:45:12;10.85;;;7.03;;
25936;SDS011;13733;51.178;4.450;2023-05-13T05:47:39;14.75;;;7.13;;
25936;SDS011;13733;51.178;4.450;2023-05-13T05:50:05;11.32;;;7.45;;
25936;SDS011;13733;51.178;4.450;2023-05-13T05:52:31;8.60;;;6.90;;
25936;SDS011;13733;51.178;4.450;2023-05-13T05:54:57;10.70;;;6.95;;
25936;SDS011;13733;51.178;4.450;2023-05-13T05:57:23;8.07;;;6.70;;
25936;SDS011;13733;51.178;4.450;2023-05-13T05:59:50;12.32;;;7.57;;
25936;SDS011;13733;51.178;4.450;2023-05-13T06:02:16;9.10;;;6.90;;
25936;SDS011;13733;51.178;4.450;2023-05-13T06:04:41;12.45;;;8.18;;
25936;SDS011;13733;51.178;4.450;2023-05-13T06:07:07;13.00;;;7.55;;
25936;SDS011;13733;51.178;4.450;2023-05-13T06:09:33;10.48;;;7.47;;
25936;SDS011;13733;51.178;4.450;2023-05-13T06:11:59;9.85;;;7.90;;
25936;SDS011;13733;51.178;4.450;2023-05-13T06:14:25;9.70;;;7.43;;
25936;SDS011;13733;51.178;4.450;2023-05-13T06:16:51;11.57;;;7.30;;
25936;SDS011;13733;51.178;4.450;2023-05-13T06:19:17;11.40;;;7.63;;
25936;SDS011;13733;51.178;4.450;2023-05-13T06:21:43;9.73;;;7.43;;
25936;SDS011;13733;51.178;4.450;2023-05-13T06:24:09;22.95;;;8.40;;
25936;SDS011;13733;51.178;4.450;2023-05-13T06:26:35;11.18;;;7.55;;
25936;SDS011;13733;51.178;4.450;2023-05-13T06:29:01;11.07;;;7.07;;
25936;SDS011;13733;51.178;4.450;2023-05-13T06:31:27;12.40;;;7.25;;
25936;SDS011;13733;51.178;4.450;2023-05-13T06:33:53;11.40;;;7.68;;
25936;SDS011;13733;51.178;4.450;2023-05-13T06:36:18;11.93;;;7.38;;
25936;SDS011;13733;51.178;4.450;2023-05-13T06:38:45;11.77;;;8.13;;
25936;SDS011;13733;51.178;4.450;2023-05-13T06:41:10;13.65;;;7.88;;
25936;SDS011;13733;51.178;4.450;2023-05-13T06:43:37;11.95;;;7.40;;
25936;SDS011;13733;51.178;4.450;2023-05-13T06:46:19;10.98;;;7.20;;
25936;SDS011;13733;51.178;4.450;2023-05-13T06:48:46;10.90;;;7.07;;
25936;SDS011;13733;51.178;4.450;2023-05-13T06:51:11;13.50;;;8.80;;
25936;SDS011;13733;51.178;4.450;2023-05-13T06:53:37;18.48;;;10.35;;
25936;SDS011;13733;51.178;4.450;2023-05-13T06:56:03;14.23;;;10.73;;
25936;SDS011;13733;51.178;4.450;2023-05-13T06:58:29;15.50;;;10.75;;
25936;SDS011;13733;51.178;4.450;2023-05-13T07:00:55;14.20;;;9.60;;
25936;SDS011;13733;51.178;4.450;2023-05-13T07:03:21;18.83;;;8.93;;
25936;SDS011;13733;51.178;4.450;2023-05-13T07:05:49;12.63;;;8.25;;
25936;SDS011;13733;51.178;4.450;2023-05-13T07:08:15;15.15;;;7.97;;
25936;SDS011;13733;51.178;4.450;2023-05-13T07:10:43;14.57;;;7.72;;
25936;SDS011;13733;51.178;4.450;2023-05-13T07:13:09;16.65;;;8.55;;
25936;SDS011;13733;51.178;4.450;2023-05-13T07:15:35;12.60;;;7.72;;
25936;SDS011;13733;51.178;4.450;2023-05-13T07:18:01;10.75;;;6.80;;
25936;SDS011;13733;51.178;4.450;2023-05-13T07:20:27;12.90;;;8.43;;
25936;SDS011;13733;51.178;4.450;2023-05-13T07:22:54;15.85;;;7.72;;
25936;SDS011;13733;51.178;4.450;2023-05-13T07:25:20;11.20;;;7.22;;
25936;SDS011;13733;51.178;4.450;2023-05-13T07:27:46;14.73;;;7.60;;
25936;SDS011;13733;51.178;4.450;2023-05-13T07:30:12;9.00;;;7.88;;
25936;SDS011;13733;51.178;4.450;2023-05-13T07:32:38;12.00;;;8.77;;
25936;SDS011;13733;51.178;4.450;2023-05-13T07:35:04;13.55;;;8.45;;
25936;SDS011;13733;51.178;4.450;2023-05-13T07:37:31;11.65;;;8.40;;
25936;SDS011;13733;51.178;4.450;2023-05-13T07:39:57;12.38;;;7.88;;
25936;SDS011;13733;51.178;4.450;2023-05-13T07:42:23;10.20;;;7.65;;
25936;SDS011;13733;51.178;4.450;2023-05-13T07:44:49;12.27;;;8.15;;
25936;SDS011;13733;51.178;4.450;2023-05-13T07:47:15;14.45;;;8.13;;
25936;SDS011;13733;51.178;4.450;2023-05-13T07:49:40;16.90;;;8.65;;
25936;SDS011;13733;51.178;4.450;2023-05-13T07:52:06;15.32;;;8.65;;
25936;SDS011;13733;51.178;4.450;2023-05-13T07:54:32;13.40;;;8.82;;
25936;SDS011;13733;51.178;4.450;2023-05-13T07:56:58;11.05;;;8.52;;
25936;SDS011;13733;51.178;4.450;2023-05-13T07:59:24;13.60;;;8.80;;
25936;SDS011;13733;51.178;4.450;2023-05-13T08:01:50;13.10;;;7.85;;
25936;SDS011;13733;51.178;4.450;2023-05-13T08:04:16;18.52;;;9.00;;
25936;SDS011;13733;51.178;4.450;2023-05-13T08:06:42;11.32;;;7.68;;
25936;SDS011;13733;51.178;4.450;2023-05-13T08:09:08;14.20;;;9.35;;
25936;SDS011;13733;51.178;4.450;2023-05-13T08:11:36;13.80;;;9.50;;
25936;SDS011;13733;51.178;4.450;2023-05-13T08:14:03;14.45;;;9.27;;
25936;SDS011;13733;51.178;4.450;2023-05-13T08:16:29;15.27;;;9.15;;
25936;SDS011;13733;51.178;4.450;2023-05-13T08:18:55;16.02;;;8.95;;
25936;SDS011;13733;51.178;4.450;2023-05-13T08:21:21;12.18;;;9.02;;
25936;SDS011;13733;51.178;4.450;2023-05-13T08:23:49;19.58;;;8.90;;
25936;SDS011;13733;51.178;4.450;2023-05-13T08:26:17;9.57;;;7.80;;
25936;SDS011;13733;51.178;4.450;2023-05-13T08:28:43;16.15;;;8.35;;
25936;SDS011;13733;51.178;4.450;2023-05-13T08:31:12;17.73;;;7.40;;
25936;SDS011;13733;51.178;4.450;2023-05-13T08:33:38;11.73;;;8.63;;
25936;SDS011;13733;51.178;4.450;2023-05-13T08:36:10;14.02;;;8.60;;
25936;SDS011;13733;51.178;4.450;2023-05-13T08:38:36;10.70;;;7.70;;
25936;SDS011;13733;51.178;4.450;2023-05-13T08:41:05;10.80;;;7.50;;
25936;SDS011;13733;51.178;4.450;2023-05-13T08:43:32;12.77;;;8.05;;
25936;SDS011;13733;51.178;4.450;2023-05-13T08:46:00;13.30;;;8.13;;
25936;SDS011;13733;51.178;4.450;2023-05-13T08:48:28;12.88;;;9.05;;
25936;SDS011;13733;51.178;4.450;2023-05-13T08:50:55;12.02;;;7.85;;
25936;SDS011;13733;51.178;4.450;2023-05-13T08:53:21;15.73;;;8.15;;
25936;SDS011;13733;51.178;4.450;2023-05-13T08:55:50;14.20;;;8.15;;
25936;SDS011;13733;51.178;4.450;2023-05-13T08:58:16;12.23;;;7.70;;
25936;SDS011;13733;51.178;4.450;2023-05-13T09:00:42;11.15;;;7.20;;
25936;SDS011;13733;51.178;4.450;2023-05-13T09:03:08;13.18;;;7.65;;
25936;SDS011;13733;51.178;4.450;2023-05-13T09:05:35;15.27;;;7.68;;
25936;SDS011;13733;51.178;4.450;2023-05-13T09:08:10;11.52;;;7.20;;
25936;SDS011;13733;51.178;4.450;2023-05-13T09:10:36;9.88;;;7.30;;
25936;SDS011;13733;51.178;4.450;2023-05-13T09:13:02;10.25;;;7.28;;
25936;SDS011;13733;51.178;4.450;2023-05-13T09:15:29;15.38;;;7.47;;
25936;SDS011;13733;51.178;4.450;2023-05-13T09:18:05;8.93;;;6.95;;
25936;SDS011;13733;51.178;4.450;2023-05-13T09:20:32;14.65;;;7.05;;
25936;SDS011;13733;51.178;4.450;2023-05-13T09:22:59;9.30;;;7.68;;
25936;SDS011;13733;51.178;4.450;2023-05-13T09:25:30;13.57;;;8.13;;
25936;SDS011;13733;51.178;4.450;2023-05-13T09:27:57;11.38;;;7.68;;
25936;SDS011;13733;51.178;4.450;2023-05-13T09:30:25;9.48;;;7.00;;
25936;SDS011;13733;51.178;4.450;2023-05-13T09:35:33;14.23;;;6.78;;
25936;SDS011;13733;51.178;4.450;2023-05-13T09:38:00;12.85;;;6.10;;
25936;SDS011;13733;51.178;4.450;2023-05-13T09:40:36;8.93;;;6.47;;
25936;SDS011;13733;51.178;4.450;2023-05-13T09:43:02;11.52;;;7.90;;
25936;SDS011;13733;51.178;4.450;2023-05-13T09:45:31;9.90;;;7.53;;
25936;SDS011;13733;51.178;4.450;2023-05-13T09:47:57;12.25;;;7.55;;
25936;SDS011;13733;51.178;4.450;2023-05-13T09:50:23;15.27;;;7.35;;
25936;SDS011;13733;51.178;4.450;2023-05-13T09:52:49;9.20;;;6.80;;
25936;SDS011;13733;51.178;4.450;2023-05-13T09:55:15;14.48;;;6.95;;
25936;SDS011;13733;51.178;4.450;2023-05-13T09:57:41;8.05;;;6.70;;
25936;SDS011;13733;51.178;4.450;2023-05-13T10:00:07;10.65;;;6.40;;
25936;SDS011;13733;51.178;4.450;2023-05-13T10:02:37;11.35;;;5.80;;
25936;SDS011;13733;51.178;4.450;2023-05-13T10:05:03;9.23;;;5.80;;
25936;SDS011;13733;51.178;4.450;2023-05-13T10:07:32;11.40;;;7.07;;
25936;SDS011;13733;51.178;4.450;2023-05-13T10:10:00;7.50;;;6.25;;
25936;SDS011;13733;51.178;4.450;2023-05-13T10:12:29;12.73;;;6.72;;
25936;SDS011;13733;51.178;4.450;2023-05-13T10:14:55;10.45;;;6.80;;
25936;SDS011;13733;51.178;4.450;2023-05-13T10:17:24;10.02;;;7.20;;
25936;SDS011;13733;51.178;4.450;2023-05-13T10:19:51;12.73;;;7.22;;
25936;SDS011;13733;51.178;4.450;2023-05-13T10:22:28;10.95;;;6.20;;
25936;SDS011;13733;51.178;4.450;2023-05-13T10:24:58;9.75;;;6.60;;
25936;SDS011;13733;51.178;4.450;2023-05-13T10:29:56;13.60;;;6.80;;
25936;SDS011;13733;51.178;4.450;2023-05-13T10:32:31;7.63;;;5.50;;
25936;SDS011;13733;51.178;4.450;2023-05-13T10:45:46;9.32;;;5.72;;
25936;SDS011;13733;51.178;4.450;2023-05-13T10:48:14;8.05;;;5.72;;
25936;SDS011;13733;51.178;4.450;2023-05-13T10:50:51;9.07;;;5.60;;
25936;SDS011;13733;51.178;4.450;2023-05-13T10:53:23;7.60;;;5.72;;
25936;SDS011;13733;51.178;4.450;2023-05-13T10:58:28;14.75;;;6.43;;
25936;SDS011;13733;51.178;4.450;2023-05-13T11:03:48;12.60;;;6.47;;
25936;SDS011;13733;51.178;4.450;2023-05-13T11:06:19;8.63;;;6.13;;
25936;SDS011;13733;51.178;4.450;2023-05-13T11:08:48;13.27;;;6.03;;
25936;SDS011;13733;51.178;4.450;2023-05-13T11:16:45;11.43;;;5.63;;
25936;SDS011;13733;51.178;4.450;2023-05-13T11:21:56;9.02;;;5.25;;
25936;SDS011;13733;51.178;4.450;2023-05-13T11:24:23;7.95;;;4.50;;
25936;SDS011;13733;51.178;4.450;2023-05-13T11:29:30;8.63;;;5.88;;
25936;SDS011;13733;51.178;4.450;2023-05-13T11:31:58;8.05;;;5.40;;
25936;SDS011;13733;51.178;4.450;2023-05-13T11:34:25;8.25;;;4.60;;
25936;SDS011;13733;51.178;4.450;2023-05-13T11:39:33;9.50;;;4.43;;
25936;SDS011;13733;51.178;4.450;2023-05-13T11:42:05;6.65;;;4.68;;
25936;SDS011;13733;51.178;4.450;2023-05-13T11:44:32;7.38;;;4.47;;
25936;SDS011;13733;51.178;4.450;2023-05-13T11:47:00;9.07;;;5.03;;
25936;SDS011;13733;51.178;4.450;2023-05-13T11:49:34;7.18;;;5.28;;
25936;SDS011;13733;51.178;4.450;2023-05-13T11:52:10;9.13;;;4.70;;
25936;SDS011;13733;51.178;4.450;2023-05-13T11:54:45;8.50;;;4.03;;
25936;SDS011;13733;51.178;4.450;2023-05-13T11:57:27;7.35;;;4.43;;
25936;SDS011;13733;51.178;4.450;2023-05-13T12:00:06;8.75;;;4.88;;
25936;SDS011;13733;51.178;4.450;2023-05-13T12:02:35;13.13;;;4.47;;
25936;SDS011;13733;51.178;4.450;2023-05-13T12:05:04;5.43;;;3.67;;
25936;SDS011;13733;51.178;4.450;2023-05-13T12:07:31;6.05;;;4.30;;
25936;SDS011;13733;51.178;4.450;2023-05-13T12:10:00;8.00;;;4.22;;
25936;SDS011;13733;51.178;4.450;2023-05-13T12:12:27;8.60;;;4.68;;
25936;SDS011;13733;51.178;4.450;2023-05-13T12:14:54;11.35;;;4.22;;
25936;SDS011;13733;51.178;4.450;2023-05-13T12:17:24;6.20;;;3.75;;
25936;SDS011;13733;51.178;4.450;2023-05-13T12:20:03;9.27;;;4.00;;
25936;SDS011;13733;51.178;4.450;2023-05-13T12:30:59;6.55;;;3.65;;
25936;SDS011;13733;51.178;4.450;2023-05-13T12:33:29;5.07;;;3.92;;
25936;SDS011;13733;51.178;4.450;2023-05-13T12:36:18;8.40;;;5.18;;
25936;SDS011;13733;51.178;4.450;2023-05-13T12:41:31;8.23;;;3.97;;
25936;SDS011;13733;51.178;4.450;2023-05-13T12:44:07;6.68;;;4.07;;
25936;SDS011;13733;51.178;4.450;2023-05-13T12:46:34;8.07;;;3.88;;
25936;SDS011;13733;51.178;4.450;2023-05-13T12:49:07;7.07;;;4.10;;
25936;SDS011;13733;51.178;4.450;2023-05-13T12:51:33;8.98;;;3.92;;
25936;SDS011;13733;51.178;4.450;2023-05-13T12:54:00;7.57;;;4.10;;
25936;SDS011;13733;51.178;4.450;2023-05-13T12:56:26;5.78;;;3.65;;
25936;SDS011;13733;51.178;4.450;2023-05-13T12:58:52;8.77;;;3.80;;
25936;SDS011;13733;51.178;4.450;2023-05-13T13:01:19;8.10;;;3.42;;
25936;SDS011;13733;51.178;4.450;2023-05-13T13:03:46;4.72;;;3.42;;
25936;SDS011;13733;51.178;4.450;2023-05-13T13:06:12;6.20;;;3.40;;
25936;SDS011;13733;51.178;4.450;2023-05-13T13:08:39;6.63;;;3.92;;
25936;SDS011;13733;51.178;4.450;2023-05-13T13:11:05;12.45;;;4.75;;
25936;SDS011;13733;51.178;4.450;2023-05-13T13:13:31;15.95;;;5.65;;
25936;SDS011;13733;51.178;4.450;2023-05-13T13:15:58;9.68;;;3.63;;
25936;SDS011;13733;51.178;4.450;2023-05-13T13:18:25;9.07;;;4.32;;
25936;SDS011;13733;51.178;4.450;2023-05-13T13:20:51;4.80;;;4.03;;
25936;SDS011;13733;51.178;4.450;2023-05-13T13:23:18;5.82;;;4.43;;
25936;SDS011;13733;51.178;4.450;2023-05-13T13:25:44;6.88;;;3.80;;
25936;SDS011;13733;51.178;4.450;2023-05-13T13:28:10;8.48;;;4.05;;
25936;SDS011;13733;51.178;4.450;2023-05-13T13:30:36;11.25;;;4.75;;
25936;SDS011;13733;51.178;4.450;2023-05-13T13:33:02;6.63;;;4.40;;
25936;SDS011;13733;51.178;4.450;2023-05-13T13:35:28;5.90;;;4.43;;
25936;SDS011;13733;51.178;4.450;2023-05-13T13:37:54;6.57;;;3.92;;
25936;SDS011;13733;51.178;4.450;2023-05-13T13:40:20;6.05;;;4.00;;
25936;SDS011;13733;51.178;4.450;2023-05-13T13:42:46;8.25;;;3.88;;
25936;SDS011;13733;51.178;4.450;2023-05-13T13:45:12;9.95;;;4.03;;
25936;SDS011;13733;51.178;4.450;2023-05-13T13:47:38;7.45;;;4.40;;
25936;SDS011;13733;51.178;4.450;2023-05-13T13:50:04;5.15;;;3.92;;
25936;SDS011;13733;51.178;4.450;2023-05-13T13:52:31;7.53;;;4.35;;
25936;SDS011;13733;51.178;4.450;2023-05-13T13:54:56;8.32;;;4.18;;
25936;SDS011;13733;51.178;4.450;2023-05-13T13:57:22;9.77;;;4.47;;
25936;SDS011;13733;51.178;4.450;2023-05-13T13:59:48;8.70;;;3.60;;
25936;SDS011;13733;51.178;4.450;2023-05-13T14:02:15;6.75;;;4.10;;
25936;SDS011;13733;51.178;4.450;2023-05-13T14:04:42;7.60;;;4.50;;
25936;SDS011;13733;51.178;4.450;2023-05-13T14:07:10;10.32;;;4.10;;
25936;SDS011;13733;51.178;4.450;2023-05-13T14:09:36;8.23;;;3.45;;
25936;SDS011;13733;51.178;4.450;2023-05-13T14:12:02;8.40;;;3.90;;
25936;SDS011;13733;51.178;4.450;2023-05-13T14:14:29;7.82;;;3.92;;
25936;SDS011;13733;51.178;4.450;2023-05-13T14:16:55;7.70;;;3.60;;
25936;SDS011;13733;51.178;4.450;2023-05-13T14:19:20;10.45;;;4.38;;
25936;SDS011;13733;51.178;4.450;2023-05-13T14:21:46;4.63;;;3.63;;
25936;SDS011;13733;51.178;4.450;2023-05-13T14:24:12;8.23;;;4.18;;
25936;SDS011;13733;51.178;4.450;2023-05-13T14:26:38;7.70;;;4.03;;
25936;SDS011;13733;51.178;4.450;2023-05-13T14:29:04;6.57;;;4.13;;
25936;SDS011;13733;51.178;4.450;2023-05-13T14:31:30;7.70;;;4.25;;
25936;SDS011;13733;51.178;4.450;2023-05-13T14:33:56;10.52;;;4.18;;
25936;SDS011;13733;51.178;4.450;2023-05-13T14:36:23;6.00;;;3.60;;
25936;SDS011;13733;51.178;4.450;2023-05-13T14:38:51;6.20;;;3.30;;
25936;SDS011;13733;51.178;4.450;2023-05-13T14:41:18;6.25;;;3.55;;
25936;SDS011;13733;51.178;4.450;2023-05-13T14:43:45;5.68;;;3.20;;
25936;SDS011;13733;51.178;4.450;2023-05-13T14:46:11;6.15;;;3.50;;
25936;SDS011;13733;51.178;4.450;2023-05-13T14:48:37;7.20;;;4.30;;
25936;SDS011;13733;51.178;4.450;2023-05-13T14:51:03;13.80;;;4.80;;
25936;SDS011;13733;51.178;4.450;2023-05-13T14:53:29;6.82;;;4.60;;
25936;SDS011;13733;51.178;4.450;2023-05-13T14:55:55;8.75;;;4.72;;
25936;SDS011;13733;51.178;4.450;2023-05-13T14:58:21;7.10;;;4.32;;
25936;SDS011;13733;51.178;4.450;2023-05-13T15:00:47;7.60;;;4.15;;
25936;SDS011;13733;51.178;4.450;2023-05-13T15:03:13;7.43;;;4.70;;
25936;SDS011;13733;51.178;4.450;2023-05-13T15:05:40;6.25;;;5.15;;
25936;SDS011;13733;51.178;4.450;2023-05-13T15:08:09;10.38;;;5.70;;
25936;SDS011;13733;51.178;4.450;2023-05-13T15:10:35;8.45;;;5.00;;
25936;SDS011;13733;51.178;4.450;2023-05-13T15:13:01;7.72;;;5.25;;
25936;SDS011;13733;51.178;4.450;2023-05-13T15:15:27;9.18;;;5.35;;
25936;SDS011;13733;51.178;4.450;2023-05-13T15:17:53;9.02;;;4.80;;
25936;SDS011;13733;51.178;4.450;2023-05-13T15:20:19;6.88;;;4.47;;
25936;SDS011;13733;51.178;4.450;2023-05-13T15:22:45;4.88;;;3.88;;
25936;SDS011;13733;51.178;4.450;2023-05-13T15:25:11;7.43;;;4.22;;
25936;SDS011;13733;51.178;4.450;2023-05-13T15:27:37;5.55;;;3.80;;
25936;SDS011;13733;51.178;4.450;2023-05-13T15:30:08;5.82;;;3.33;;
25936;SDS011;13733;51.178;4.450;2023-05-13T15:32:34;6.65;;;3.40;;
25936;SDS011;13733;51.178;4.450;2023-05-13T15:35:00;6.97;;;3.33;;